Temp: 4.7°C   Baro: 1017.2mb
  Wind: 0.0mph   Dir: NNW (342°)
  Rain: 0.0mm (0.0mm/hr)
  Solar: 0W/m2  Hum: 83%

Historic data

Bath Spa Weather Station Historical Data
Daily Summary for January 16, 2021 Units:  Metric    English   Both
Daily Weekly Monthly Yearly Custom
  High: Low: Average:
Temperature: 12.5 °C 6.2 °C 9.6 °C
Dew Point: 10.9 °C 6.2 °C 8.8 °C
Humidity: 96% 85% 93%
Wind Speed: 10km/h 0km/h 2.4km/h
Wind Gust: 17.7km/h - -
Wind- - SSW
Pressure: 1027 hPa 1020.2 hPa -
Precipitation: 0.25 mm    
Historical Graphs
 
 
Tabular Data for January 16, 2021
Time Temperature Dew Point Pressure Wind Wind Speed Wind Gust Humidity Rainfall Rate (Hourly) solar
00:04 7.7 °C 7.4 °C 1027 hPa Calm     95% 0 mm 0 W/m2
00:09 7.7 °C 7.4 °C 1027 hPa Calm     95% 0 mm 0 W/m2
00:14 7.7 °C 7.4 °C 1027 hPa NNE 0.6 km/h 3.2 km/h 95% 0 mm 0 W/m2
00:19 7.7 °C 7.4 °C 1026.6 hPa NNE 0.3 km/h 3.2 km/h 95% 0 mm 0 W/m2
00:24 7.7 °C 7.4 °C 1026.6 hPa Calm   1.6 km/h 95% 0 mm 0 W/m2
00:29 7.7 °C 7.4 °C 1026.6 hPa Calm   1.6 km/h 95% 0 mm 0 W/m2
00:34 7.7 °C 7.4 °C 1026.6 hPa Calm     95% 0 mm 0 W/m2
00:39 7.7 °C 7.4 °C 1026.6 hPa Calm   1.6 km/h 95% 0 mm 0 W/m2
00:44 7.7 °C 7.4 °C 1026.6 hPa Calm   1.6 km/h 95% 0 mm 0 W/m2
00:49 7.7 °C 7.4 °C 1026.6 hPa Calm     95.2% 0 mm 0 W/m2
00:54 7.7 °C 7.5 °C 1026.3 hPa Calm     95.4% 0 mm 0 W/m2
00:59 7.7 °C 7.5 °C 1026.3 hPa Calm     95.6% 0 mm 0 W/m2
01:04 7.7 °C 7.6 °C 1026.3 hPa Calm     96% 0 mm 0 W/m2
01:09 7.7 °C 7.6 °C 1026.3 hPa Calm     96% 0 mm 0 W/m2
01:14 7.7 °C 7.6 °C 1026.3 hPa Calm     96% 0 mm 0 W/m2
01:19 7.7 °C 7.6 °C 1026 hPa NNE 0.6 km/h 3.2 km/h 96% 0 mm 0 W/m2
01:24 7.7 °C 7.6 °C 1026 hPa NNE 1.4 km/h 4.8 km/h 96% 0 mm 0 W/m2
01:29 7.7 °C 7.6 °C 1026 hPa NNE 1.4 km/h 4.8 km/h 96% 0 mm 0 W/m2
01:34 7.7 °C 7.6 °C 1026 hPa NNE 2.7 km/h 4.8 km/h 96% 0 mm 0 W/m2
01:39 7.7 °C 7.6 °C 1026 hPa NNE 2.3 km/h 4.8 km/h 96% 0 mm 0 W/m2
01:44 7.6 °C 7.5 °C 1026 hPa NNE 3.9 km/h 4.8 km/h 96% 0 mm 0 W/m2
01:49 7.7 °C 7.6 °C 1026 hPa NNE 1.6 km/h 4.8 km/h 96% 0 mm 0 W/m2
01:54 7.7 °C 7.6 °C 1025.6 hPa Calm   3.2 km/h 96% 0 mm 0 W/m2
01:59 7.7 °C 7.6 °C 1025.6 hPa Calm   3.2 km/h 96% 0 mm 0 W/m2
02:04 7.7 °C 7.6 °C 1025.6 hPa Calm   1.6 km/h 96% 0 mm 0 W/m2
02:09 7.7 °C 7.6 °C 1025.6 hPa Calm     96% 0 mm 0 W/m2
02:14 7.7 °C 7.6 °C 1025.6 hPa Calm     96% 0 mm 0 W/m2
02:19 7.7 °C 7.6 °C 1025.6 hPa NNE 0.3 km/h 1.6 km/h 96% 0 mm 0 W/m2
02:24 7.7 °C 7.6 °C 1025.6 hPa NNE 0.6 km/h 3.2 km/h 96% 0 mm 0 W/m2
02:29 7.6 °C 7.4 °C 1025.3 hPa NNE 0.6 km/h 1.6 km/h 95.6% 0 mm 0 W/m2
02:34 7.6 °C 7.4 °C 1025.3 hPa Calm   1.6 km/h 95.4% 0 mm 0 W/m2
02:38 7.6 °C 7.4 °C 1025.3 hPa Calm     95.5% 0 mm 0 W/m2
02:44 7.6 °C 7.3 °C 1025.3 hPa Calm     95.6% 0 mm 0 W/m2
02:49 7.5 °C 7.4 °C 1025.3 hPa Calm     96% 0 mm 0 W/m2
02:54 7.4 °C 7.3 °C 1025.3 hPa Calm     96% 0 mm 0 W/m2
02:59 7.5 °C 7.4 °C 1025.6 hPa Calm     96% 0 mm 0 W/m2
03:04 7.4 °C 7.3 °C 1025.6 hPa Calm     96% 0 mm 0 W/m2
03:09 7.4 °C 7.3 °C 1025.3 hPa Calm     96% 0 mm 0 W/m2
03:14 7.4 °C 7.3 °C 1025.3 hPa Calm     96% 0 mm 0 W/m2
03:19 7.5 °C 7.4 °C 1025.3 hPa Calm     96% 0 mm 0 W/m2
03:24 7.5 °C 7.4 °C 1025.3 hPa Calm     96% 0 mm 0 W/m2
03:29 7.5 °C 7.4 °C 1025.3 hPa Calm     96% 0 mm 0 W/m2
03:34 7.4 °C 7.3 °C 1025.3 hPa Calm     96% 0 mm 0 W/m2
03:39 7.5 °C 7.4 °C 1024.9 hPa Calm     96% 0 mm 0 W/m2
03:44 7.4 °C 7.3 °C 1024.9 hPa Calm     96% 0 mm 0 W/m2
03:49 7.4 °C 7.3 °C 1024.9 hPa Calm     96% 0 mm 0 W/m2
03:54 7.4 °C 7.3 °C 1024.9 hPa Calm     96% 0 mm 0 W/m2
03:59 7.3 °C 7.3 °C 1024.9 hPa Calm     96% 0 mm 0 W/m2
04:04 7.3 °C 7.2 °C 1024.9 hPa Calm     96% 0 mm 0 W/m2
04:09 7.4 °C 7.3 °C 1024.9 hPa Calm     96% 0 mm 0 W/m2
04:14 7.4 °C 7.3 °C 1024.9 hPa Calm     96% 0 mm 0 W/m2
04:19 7.4 °C 7.3 °C 1024.9 hPa Calm     96% 0 mm 0 W/m2
04:24 7.3 °C 7.3 °C 1024.9 hPa Calm     96% 0 mm 0 W/m2
04:29 7.3 °C 7.2 °C 1024.9 hPa Calm     96% 0 mm 0 W/m2
04:34 7.4 °C 7.3 °C 1024.9 hPa Calm     96% 0 mm 0 W/m2
04:39 7.4 °C 7.3 °C 1024.9 hPa Calm     96% 0 mm 0 W/m2
04:44 7.4 °C 7.3 °C 1024.9 hPa Calm   1.6 km/h 96% 0 mm 0 W/m2
04:49 7.4 °C 7.3 °C 1024.6 hPa NNE 1.3 km/h 3.2 km/h 96% 0 mm 0 W/m2
04:54 7.4 °C 7.3 °C 1024.6 hPa NNE 0.3 km/h 1.6 km/h 96% 0 mm 0 W/m2
04:59 7.3 °C 7.2 °C 1024.6 hPa Calm   1.6 km/h 96% 0 mm 0 W/m2
05:04 7.3 °C 7.2 °C 1024.3 hPa Calm     96% 0 mm 0 W/m2
05:09 7.2 °C 7.1 °C 1024.3 hPa Calm     96% 0 mm 0 W/m2
05:14 7.1 °C 7 °C 1024.6 hPa Calm     96% 0 mm 0 W/m2
05:19 7.1 °C 6.9 °C 1024.3 hPa Calm     96% 0 mm 0 W/m2
05:24 6.9 °C 6.8 °C 1024.3 hPa Calm     96% 0 mm 0 W/m2
05:29 6.9 °C 6.8 °C 1024.6 hPa Calm     96% 0 mm 0 W/m2
05:34 6.8 °C 6.8 °C 1024.6 hPa NNE 0.8 km/h 1.6 km/h 96% 0 mm 0 W/m2
05:39 6.7 °C 6.6 °C 1024.6 hPa NNE 0.3 km/h 3.2 km/h 96% 0 mm 0 W/m2
05:44 6.6 °C 6.4 °C 1024.6 hPa NNE 0.3 km/h 3.2 km/h 96% 0 mm 0 W/m2
05:49 6.4 °C 6.3 °C 1024.6 hPa NNE 0.3 km/h 3.2 km/h 95.2% 0 mm 0 W/m2
05:54 6.4 °C 6.2 °C 1024.6 hPa Calm     95% 0 mm 0 W/m2
05:59 6.3 °C 6.2 °C 1024.6 hPa NNE 0.8 km/h 1.6 km/h 95.3% 0 mm 0 W/m2
06:04 6.3 °C 6.2 °C 1024.6 hPa NNE 0.6 km/h 3.2 km/h 95.8% 0 mm 0 W/m2
06:09 6.3 °C 6.2 °C 1024.6 hPa Calm   3.2 km/h 96% 0 mm 0 W/m2
06:14 6.2 °C 6.2 °C 1024.6 hPa Calm   1.6 km/h 96% 0 mm 0 W/m2
06:19 6.3 °C 6.2 °C 1024.6 hPa Calm   1.6 km/h 96% 0 mm 0 W/m2
06:24 6.3 °C 6.2 °C 1024.6 hPa Calm     96% 0 mm 0 W/m2
06:29 6.4 °C 6.3 °C 1024.6 hPa Calm     96% 0 mm 0 W/m2
06:34 6.4 °C 6.3 °C 1024.6 hPa Calm   1.6 km/h 96% 0 mm 0 W/m2
06:39 6.5 °C 6.4 °C 1024.6 hPa Calm     96% 0 mm 0 W/m2
06:44 6.6 °C 6.4 °C 1024.6 hPa NNE 0.3 km/h 1.6 km/h 96% 0 mm 0 W/m2
06:49 6.6 °C 6.5 °C 1024.6 hPa Calm   3.2 km/h 96% 0 mm 0 W/m2
06:54 6.6 °C 6.5 °C 1024.6 hPa Calm   1.6 km/h 96% 0 mm 0 W/m2
06:59 6.7 °C 6.6 °C 1024.6 hPa NNE 0.3 km/h 1.6 km/h 96% 0 mm 0 W/m2
07:04 6.7 °C 6.6 °C 1024.6 hPa Calm   1.6 km/h 96% 0 mm 0 W/m2
07:09 6.8 °C 6.7 °C 1024.6 hPa Calm   1.6 km/h 96% 0 mm 0 W/m2
07:14 6.8 °C 6.7 °C 1024.6 hPa Calm   1.6 km/h 96% 0 mm 0 W/m2
07:19 6.8 °C 6.8 °C 1024.6 hPa NNE 0.3 km/h 3.2 km/h 96% 0 mm 0 W/m2
07:24 6.9 °C 6.8 °C 1024.3 hPa Calm   3.2 km/h 96% 0 mm 0 W/m2
07:29 7 °C 6.9 °C 1024.3 hPa Calm   1.6 km/h 96% 0 mm 0 W/m2
07:34 7.1 °C 7 °C 1024.3 hPa Calm   3.2 km/h 96% 0 mm 0 W/m2
07:39 7.1 °C 7 °C 1024.3 hPa NNE 1.6 km/h 6.4 km/h 96% 0 mm 5 W/m2
07:44 7.5 °C 7.4 °C 1024.3 hPa NNE 1.6 km/h 6.4 km/h 96% 0 mm 5 W/m2
07:49 7.9 °C 7.8 °C 1024.3 hPa NNE 0.8 km/h 3.2 km/h 96% 0 mm 7 W/m2
07:54 8.6 °C 8.4 °C 1024.3 hPa NNE 1 km/h 4.8 km/h 96% 0 mm 11 W/m2
07:59 8.3 °C 8.2 °C 1024.3 hPa NNE 1.9 km/h 4.8 km/h 96% 0 mm 14 W/m2
08:04 8.2 °C 8.2 °C 1024.3 hPa NNE 1.3 km/h 4.8 km/h 96% 0 mm 16 W/m2
08:09 8.3 °C 8.3 °C 1024.3 hPa NNE 0.3 km/h 3.2 km/h 96% 0 mm 19 W/m2
08:14 8.4 °C 8.3 °C 1024.3 hPa NNE 1.3 km/h 3.2 km/h 96% 0 mm 21 W/m2
08:19 8.6 °C 8.5 °C 1024.3 hPa Calm   3.2 km/h 96% 0 mm 25 W/m2
08:24 8.8 °C 8.7 °C 1024.3 hPa Calm     96% 0 mm 30 W/m2
08:29 9.1 °C 8.9 °C 1024.3 hPa NNE 0.6 km/h 3.2 km/h 96% 0 mm 33 W/m2
08:34 9.3 °C 9.3 °C 1023.9 hPa NNE 0.8 km/h 4.8 km/h 96% 0 mm 39 W/m2
08:39 9.5 °C 9.4 °C 1023.9 hPa Calm   1.6 km/h 96% 0 mm 42 W/m2
08:44 9.2 °C 9 °C 1023.9 hPa Calm     95.8% 0 mm 44 W/m2
08:49 9.1 °C 8.7 °C 1023.9 hPa Calm     95% 0 mm 44 W/m2
08:54 9.2 °C 9.1 °C 1023.9 hPa Calm   1.6 km/h 95.8% 0 mm 44 W/m2
08:59 8.9 °C 8.6 °C 1023.9 hPa Calm     95% 0 mm 47 W/m2
09:04 9.1 °C 8.9 °C 1023.9 hPa Calm   3.2 km/h 95.8% 0 mm 53 W/m2
09:09 8.9 °C 8.7 °C 1023.9 hPa Calm     95% 0 mm 58 W/m2
09:14 9 °C 8.7 °C 1023.9 hPa Calm   3.2 km/h 95% 0 mm 62 W/m2
09:19 9.2 °C 8.9 °C 1023.9 hPa Calm   1.6 km/h 95% 0 mm 63 W/m2
09:23 9.2 °C 8.9 °C 1023.9 hPa Calm   1.6 km/h 95% 0 mm 60 W/m2
09:29 9.3 °C 8.9 °C 1023.9 hPa Calm   3.2 km/h 95% 0 mm 67 W/m2
09:34 9.1 °C 8.8 °C 1023.9 hPa NNE 0.3 km/h 3.2 km/h 95% 0 mm 74 W/m2
09:39 9.1 °C 8.8 °C 1023.9 hPa NNE 0.3 km/h 3.2 km/h 95% 0 mm 74 W/m2
09:44 9.1 °C 8.8 °C 1023.6 hPa NNE 0.3 km/h 1.6 km/h 95% 0 mm 76 W/m2
09:49 9.1 °C 8.7 °C 1023.6 hPa Calm   1.6 km/h 95% 0 mm 93 W/m2
09:54 9 °C 8.7 °C 1023.6 hPa NNE 0.6 km/h 1.6 km/h 95% 0 mm 114 W/m2
09:59 9.1 °C 8.7 °C 1023.6 hPa Calm   1.6 km/h 94% 0 mm 120 W/m2
10:04 9.2 °C 8.8 °C 1023.6 hPa NNE 0.3 km/h 3.2 km/h 94% 0 mm 120 W/m2
10:09 9.7 °C 9.3 °C 1023.6 hPa NNE 0.6 km/h 1.6 km/h 94.2% 0 mm 229 W/m2
10:14 9.9 °C 9.5 °C 1023.6 hPa Calm   1.6 km/h 94% 0 mm 239 W/m2
10:19 10.4 °C 9.9 °C 1023.6 hPa Calm     94% 0 mm 221 W/m2
10:24 10.7 °C 10.2 °C 1023.6 hPa NNE 0.6 km/h 3.2 km/h 93.2% 0 mm 299 W/m2
10:29 10.7 °C 9.9 °C 1023.2 hPa Calm   3.2 km/h 91.5% 0 mm 197 W/m2
10:34 10.8 °C 9.9 °C 1023.2 hPa Calm     91% 0 mm 174 W/m2
10:39 10.8 °C 9.8 °C 1023.2 hPa Calm     90.2% 0 mm 188 W/m2
10:44 10.8 °C 9.7 °C 1023.2 hPa Calm     90% 0 mm 148 W/m2
10:49 11 °C 9.9 °C 1023.2 hPa Calm     90% 0 mm 155 W/m2
10:54 11.2 °C 10.1 °C 1023.2 hPa Calm     90% 0 mm 155 W/m2
10:59 11.3 °C 10.2 °C 1023.2 hPa NNE 0.8 km/h 4.8 km/h 90% 0 mm 163 W/m2
11:04 11.4 °C 10.2 °C 1022.9 hPa NNE 2.6 km/h 6.4 km/h 89.2% 0 mm 193 W/m2
11:09 11.6 °C 10.4 °C 1022.9 hPa NNE 0.3 km/h 4.8 km/h 89.6% 0 mm 279 W/m2
11:14 11.9 °C 10.6 °C 1022.9 hPa NNE 7.7 km/h 9.7 km/h 89% 0 mm 216 W/m2
11:19 12 °C 10.7 °C 1022.9 hPa NNE 4.7 km/h 9.7 km/h 89% 0 mm 244 W/m2
11:24 11.9 °C 10.6 °C 1022.9 hPa NNE 6.8 km/h 11.3 km/h 88% 0 mm 306 W/m2
11:29 12.3 °C 10.8 °C 1022.9 hPa NNE 3.2 km/h 9.7 km/h 88% 0 mm 306 W/m2
11:34 12.4 °C 10.9 °C 1022.6 hPa NNE 6.9 km/h 11.3 km/h 87.4% 0 mm 309 W/m2
11:39 12.4 °C 10.7 °C 1022.6 hPa NNE 7.9 km/h 11.3 km/h 86.8% 0 mm 334 W/m2
11:44 12.4 °C 10.7 °C 1022.6 hPa NNE 5.8 km/h 11.3 km/h 86.2% 0 mm 339 W/m2
11:49 12.4 °C 10.7 °C 1022.6 hPa NNE 6.8 km/h 9.7 km/h 86% 0 mm 272 W/m2
11:54 12.4 °C 10.7 °C 1022.6 hPa NNE 7.7 km/h 11.3 km/h 86% 0 mm 304 W/m2
11:59 12.4 °C 10.7 °C 1022.6 hPa NNE 7.9 km/h 11.3 km/h 86% 0 mm 174 W/m2
12:04 12.3 °C 10.6 °C 1022.2 hPa NW 6.8 km/h 17.7 km/h 86% 0 mm 181 W/m2
12:09 12.4 °C 10.6 °C 1022.2 hPa WNW 3.2 km/h 8 km/h 86% 0 mm 223 W/m2
12:14 12.4 °C 10.7 °C 1022.2 hPa WNW 7.4 km/h 12.9 km/h 86% 0 mm 137 W/m2
12:19 12.4 °C 10.6 °C 1022.2 hPa WNW 6.9 km/h 12.9 km/h 86% 0 mm 104 W/m2
12:24 12.4 °C 10.4 °C 1022.2 hPa WNW 8 km/h 11.3 km/h 85% 0 mm 91 W/m2
12:29 12.3 °C 10.3 °C 1022.2 hPa WNW 3.5 km/h 11.3 km/h 85% 0 mm 88 W/m2
12:34 12.4 °C 10.4 °C 1022.2 hPa WNW 7.1 km/h 12.9 km/h 85.4% 0 mm 171 W/m2
12:39 12.3 °C 10.3 °C 1022.2 hPa WNW 9 km/h 12.9 km/h 85% 0 mm 167 W/m2
12:44 12.4 °C 10.4 °C 1022.2 hPa WNW 9.2 km/h 12.9 km/h 85% 0 mm 199 W/m2
12:49 12.4 °C 10.4 °C 1022.2 hPa WNW 7.2 km/h 12.9 km/h 85% 0 mm 146 W/m2
12:54 12.4 °C 10.4 °C 1022.2 hPa WNW 6.4 km/h 12.9 km/h 85% 0 mm 125 W/m2
12:59 12.4 °C 10.4 °C 1022.2 hPa WNW 7.1 km/h 11.3 km/h 85% 0 mm 144 W/m2
13:04 12.4 °C 10.4 °C 1022.2 hPa WNW 5.3 km/h 11.3 km/h 85% 0 mm 139 W/m2
13:09 12.4 °C 10.4 °C 1021.9 hPa WNW 7.1 km/h 14.5 km/h 85% 0 mm 116 W/m2
13:14 12.4 °C 10.4 °C 1021.9 hPa WNW 6 km/h 11.3 km/h 85% 0 mm 104 W/m2
13:19 12.5 °C 10.5 °C 1021.9 hPa WNW 4.5 km/h 11.3 km/h 85% 0 mm 72 W/m2
13:24 12.5 °C 10.5 °C 1021.9 hPa WNW 6 km/h 9.7 km/h 85% 0 mm 62 W/m2
13:29 12.4 °C 10.4 °C 1021.9 hPa WNW 5.8 km/h 11.3 km/h 85% 0 mm 46 W/m2
13:34 12.4 °C 10.4 °C 1021.6 hPa WNW 5.6 km/h 12.9 km/h 85% 0 mm 54 W/m2
13:39 12.4 °C 10.4 °C 1021.6 hPa WNW 8.9 km/h 12.9 km/h 85% 0 mm 56 W/m2
13:44 12.4 °C 10.4 °C 1021.6 hPa WNW 5.8 km/h 12.9 km/h 85% 0 mm 53 W/m2
13:48 12.4 °C 10.4 °C 1021.6 hPa WNW 10 km/h 14.5 km/h 85% 0 mm 42 W/m2
13:54 12.2 °C 10.2 °C 1021.6 hPa WNW 9 km/h 16.1 km/h 85% 0 mm 40 W/m2
13:59 12.2 °C 10.3 °C 1021.6 hPa WNW 6.8 km/h 12.9 km/h 85.8% 0 mm 65 W/m2
14:04 12.1 °C 10.3 °C 1021.6 hPa WNW 6.8 km/h 12.9 km/h 86% 0 mm 76 W/m2
14:09 12.1 °C 10.3 °C 1021.6 hPa WNW 8.2 km/h 14.5 km/h 86.2% 0 mm 74 W/m2
14:14 12.1 °C 10.5 °C 1021.2 hPa WNW 7.6 km/h 12.9 km/h 87% 0 mm 63 W/m2
14:19 12.1 °C 10.5 °C 1021.2 hPa WNW 3.4 km/h 8 km/h 87% 0 mm 53 W/m2
14:24 12.1 °C 10.5 °C 1021.2 hPa WNW 6 km/h 8 km/h 87% 0 mm 54 W/m2
14:29 12.1 °C 10.5 °C 1021.2 hPa WNW 6.6 km/h 11.3 km/h 87% 0 mm 54 W/m2
14:34 12 °C 10.4 °C 1021.2 hPa WNW 7.7 km/h 11.3 km/h 87% 0 mm 63 W/m2
14:39 12 °C 10.5 °C 1021.2 hPa WNW 4.7 km/h 9.7 km/h 87.6% 0 mm 65 W/m2
14:44 12.1 °C 10.7 °C 1021.2 hPa WNW 3.4 km/h 9.7 km/h 88% 0 mm 54 W/m2
14:49 12.1 °C 10.7 °C 1021.2 hPa WNW 7.2 km/h 11.3 km/h 88% 0 mm 51 W/m2
14:54 11.9 °C 10.4 °C 1020.9 hPa WNW 7.1 km/h 14.5 km/h 87.4% 0 mm 47 W/m2
14:59 11.9 °C 10.4 °C 1021.2 hPa WNW 6.3 km/h 11.3 km/h 87.8% 0 mm 42 W/m2
15:04 11.9 °C 10.5 °C 1020.9 hPa WNW 4.5 km/h 8 km/h 88% 0 mm 33 W/m2
15:09 11.8 °C 10.4 °C 1020.9 hPa WNW 5.8 km/h 9.7 km/h 88% 0 mm 30 W/m2
15:14 11.8 °C 10.4 °C 1020.9 hPa WNW 2.1 km/h 8 km/h 88% 0 mm 28 W/m2
15:19 11.8 °C 10.4 °C 1020.9 hPa WNW 4.5 km/h 9.7 km/h 88% 0 mm 21 W/m2
15:24 11.8 °C 10.4 °C 1020.9 hPa WNW 3.1 km/h 9.7 km/h 88% 0 mm 21 W/m2
15:29 11.8 °C 10.4 °C 1020.9 hPa WNW 2.6 km/h 6.4 km/h 88% 0 mm 16 W/m2
15:34 11.8 °C 10.4 °C 1020.9 hPa WNW 1.1 km/h 6.4 km/h 88.6% 0 mm 12 W/m2
15:39 11.8 °C 10.5 °C 1020.9 hPa WNW 2.6 km/h 6.4 km/h 89% 0 mm 11 W/m2
15:44 11.8 °C 10.5 °C 1020.9 hPa WNW 2.1 km/h 6.4 km/h 89% 0 mm 9 W/m2
15:49 11.8 °C 10.5 °C 1020.9 hPa WNW 3.1 km/h 6.4 km/h 89% 0 mm 12 W/m2
15:54 11.8 °C 10.5 °C 1020.9 hPa WNW 2.1 km/h 6.4 km/h 89% 0 mm 12 W/m2
15:59 11.8 °C 10.5 °C 1020.9 hPa WNW 1.3 km/h 3.2 km/h 89% 0 mm 14 W/m2
16:04 11.7 °C 10.4 °C 1020.5 hPa WNW 0.6 km/h 4.8 km/h 89% 0 mm 14 W/m2
16:09 11.7 °C 10.4 °C 1020.5 hPa Calm   3.2 km/h 89% 0 mm 11 W/m2
16:14 11.6 °C 10.4 °C 1020.5 hPa Calm   1.6 km/h 89.6% 0 mm 5 W/m2
16:19 11.6 °C 10.5 °C 1020.5 hPa Calm     90% 0 mm 0 W/m2
16:24 11.6 °C 10.5 °C 1020.5 hPa Calm     90% 0 mm 0 W/m2
16:29 11.6 °C 10.5 °C 1020.5 hPa Calm     90% 0 mm 0 W/m2
16:34 11.6 °C 10.5 °C 1020.5 hPa Calm     90% 0 mm 0 W/m2
16:39 11.6 °C 10.4 °C 1020.2 hPa Calm     90% 0 mm 0 W/m2
16:44 11.5 °C 10.4 °C 1020.2 hPa Calm     90% 0 mm 0 W/m2
16:49 11.5 °C 10.4 °C 1020.2 hPa Calm   3.2 km/h 90% 0 mm 0 W/m2
16:54 11.4 °C 10.3 °C 1020.2 hPa WNW 0.3 km/h 1.6 km/h 90% 0 mm 0 W/m2
16:59 11.4 °C 10.3 °C 1020.2 hPa Calm   1.6 km/h 90% 0 mm 0 W/m2
17:04 11.4 °C 10.4 °C 1020.2 hPa Calm     90.4% 0 mm 0 W/m2
17:09 11.4 °C 10.5 °C 1020.2 hPa WNW 1.3 km/h 4.8 km/h 91% 0 mm 0 W/m2
17:14 11.4 °C 10.5 °C 1020.2 hPa Calm   4.8 km/h 91% 0 mm 0 W/m2
17:19 11.3 °C 10.4 °C 1020.5 hPa WNW 2.6 km/h 6.4 km/h 91% 0 mm 0 W/m2
17:24 11.3 °C 10.4 °C 1020.5 hPa WNW 0.3 km/h 4.8 km/h 91% 0 mm 0 W/m2
17:29 11.3 °C 10.4 °C 1020.5 hPa WNW 0.3 km/h 3.2 km/h 91% 0 mm 0 W/m2
17:34 11.3 °C 10.4 °C 1020.5 hPa Calm     91% 0 mm 0 W/m2
17:39 11.3 °C 10.4 °C 1020.5 hPa WNW 1.3 km/h 4.8 km/h 91% 0 mm 0 W/m2
17:44 11.3 °C 10.4 °C 1020.2 hPa WNW 1 km/h 6.4 km/h 91% 0 mm 0 W/m2
17:48 11.3 °C 10.4 °C 1020.2 hPa WNW 3.2 km/h 6.4 km/h 91% 0 mm 0 W/m2
17:54 11.3 °C 10.3 °C 1020.5 hPa WNW 3.5 km/h 8 km/h 91% 0 mm 0 W/m2
17:58 11.2 °C 10.3 °C 1020.5 hPa WNW 6 km/h 9.7 km/h 91% 0 mm 0 W/m2
18:04 11.2 °C 10.3 °C 1020.5 hPa WNW 4.2 km/h 8 km/h 91% 0 mm 0 W/m2
18:09 11.3 °C 10.3 °C 1020.5 hPa WNW 3.5 km/h 6.4 km/h 91% 0 mm 0 W/m2
18:14 11.3 °C 10.4 °C 1020.5 hPa WNW 6 km/h 9.7 km/h 91% 0 mm 0 W/m2
18:19 11.2 °C 10.3 °C 1020.5 hPa WNW 6.4 km/h 9.7 km/h 91% 0 mm 0 W/m2
18:24 11.2 °C 10.4 °C 1020.5 hPa WNW 5.8 km/h 12.9 km/h 92% 0.25 mm 0 W/m2
18:28 11.2 °C 10.3 °C 1020.5 hPa WNW 3.5 km/h 8 km/h 92% 0.25 mm 0 W/m2
18:34 11.1 °C 10.3 °C 1020.5 hPa WNW 1.9 km/h 4.8 km/h 92% 0.25 mm 0 W/m2
18:39 11.1 °C 10.3 °C 1020.5 hPa WNW 0.6 km/h 4.8 km/h 92% 0.25 mm 0 W/m2
18:44 11 °C 10.2 °C 1020.5 hPa WNW 2.6 km/h 6.4 km/h 92% 0.25 mm 0 W/m2
18:49 10.9 °C 10.1 °C 1020.5 hPa WNW 2.9 km/h 6.4 km/h 92% 0.25 mm 0 W/m2
18:54 10.9 °C 10.2 °C 1020.5 hPa WNW 3.1 km/h 8 km/h 92.8% 0.25 mm 0 W/m2
18:59 10.8 °C 10.2 °C 1020.9 hPa WNW 4.8 km/h 8 km/h 93% 0.25 mm 0 W/m2
19:04 10.8 °C 10.2 °C 1020.9 hPa WNW 7.2 km/h 14.5 km/h 93% 0.25 mm 0 W/m2
19:09 10.8 °C 10.2 °C 1021.2 hPa WNW 7.7 km/h 14.5 km/h 93% 0.25 mm 0 W/m2
19:14 10.7 °C 10.2 °C 1021.2 hPa WNW 6.4 km/h 11.3 km/h 93% 0.25 mm 0 W/m2
19:19 10.8 °C 10.2 °C 1021.2 hPa WNW 6 km/h 12.9 km/h 93% 0.25 mm 0 W/m2
19:24 10.7 °C 10.1 °C 1021.2 hPa WNW 7.9 km/h 12.9 km/h 93% 0.25 mm 0 W/m2
19:29 10.7 °C 10.1 °C 1021.2 hPa WNW 7.1 km/h 12.9 km/h 93% 0 mm 0 W/m2
19:34 10.7 °C 10.1 °C 1021.2 hPa WNW 10 km/h 17.7 km/h 93% 0 mm 0 W/m2
19:39 10.7 °C 10.1 °C 1021.2 hPa WNW 8.4 km/h 14.5 km/h 93% 0 mm 0 W/m2
19:44 10.7 °C 10.1 °C 1021.2 hPa WNW 8.4 km/h 16.1 km/h 93% 0 mm 0 W/m2
19:49 10.7 °C 10.1 °C 1021.2 hPa WNW 10 km/h 16.1 km/h 93% 0 mm 0 W/m2
19:54 10.7 °C 10.1 °C 1021.2 hPa WNW 8.4 km/h 11.3 km/h 93% 0 mm 0 W/m2
19:59 10.6 °C 9.9 °C 1021.2 hPa WNW 7.4 km/h 14.5 km/h 92.6% 0 mm 0 W/m2
20:04 10.6 °C 9.8 °C 1021.2 hPa WNW 7.1 km/h 14.5 km/h 92% 0 mm 0 W/m2
20:09 10.4 °C 9.7 °C 1021.2 hPa WNW 5.8 km/h 11.3 km/h 92% 0 mm 0 W/m2
20:14 10.3 °C 9.7 °C 1021.2 hPa WNW 2.9 km/h 9.7 km/h 92% 0 mm 0 W/m2
20:19 10.3 °C 9.6 °C 1021.2 hPa WNW 1.6 km/h 3.2 km/h 92% 0 mm 0 W/m2
20:24 10.2 °C 9.6 °C 1021.2 hPa WNW 3.9 km/h 6.4 km/h 92% 0 mm 0 W/m2
20:29 10.2 °C 9.4 °C 1021.2 hPa WNW 7.2 km/h 11.3 km/h 92% 0 mm 0 W/m2
20:34 10 °C 9.3 °C 1021.2 hPa WNW 8 km/h 14.5 km/h 92% 0 mm 0 W/m2
20:39 9.9 °C 9.2 °C 1021.2 hPa WNW 4 km/h 8 km/h 92% 0 mm 0 W/m2
20:44 9.9 °C 9.2 °C 1021.2 hPa WNW 2.7 km/h 6.4 km/h 92% 0 mm 0 W/m2
20:49 9.9 °C 9.2 °C 1021.2 hPa WNW 4 km/h 6.4 km/h 92% 0 mm 0 W/m2
20:54 9.8 °C 9.1 °C 1021.2 hPa WNW 7.1 km/h 11.3 km/h 92% 0 mm 0 W/m2
20:59 9.7 °C 9 °C 1021.2 hPa WNW 4.8 km/h 9.7 km/h 92% 0 mm 0 W/m2
21:04 9.7 °C 8.9 °C 1021.2 hPa WNW 2.6 km/h 6.4 km/h 92% 0 mm 0 W/m2
21:09 9.6 °C 8.9 °C 1021.2 hPa WNW 4.3 km/h 6.4 km/h 92% 0 mm 0 W/m2
21:14 9.6 °C 8.9 °C 1020.9 hPa WNW 1 km/h 6.4 km/h 92% 0 mm 0 W/m2
21:19 9.4 °C 8.7 °C 1020.9 hPa WNW 2.1 km/h 4.8 km/h 92% 0 mm 0 W/m2
21:24 9.3 °C 8.7 °C 1020.9 hPa WNW 1.9 km/h 3.2 km/h 92% 0 mm 0 W/m2
21:29 9.3 °C 8.6 °C 1020.9 hPa WNW 1 km/h 3.2 km/h 92% 0 mm 0 W/m2
21:34 9.2 °C 8.5 °C 1020.9 hPa WNW 3.2 km/h 4.8 km/h 92% 0 mm 0 W/m2
21:39 9 °C 8.3 °C 1020.5 hPa WNW 4.5 km/h 8 km/h 92% 0 mm 0 W/m2
21:44 9 °C 8.3 °C 1020.5 hPa WNW 5.5 km/h 8 km/h 92% 0 mm 0 W/m2
21:49 9 °C 8.3 °C 1020.5 hPa WNW 6 km/h 9.7 km/h 92% 0 mm 0 W/m2
21:54 8.9 °C 8.3 °C 1020.5 hPa WNW 5.3 km/h 8 km/h 93% 0 mm 0 W/m2
21:59 8.9 °C 8.3 °C 1020.5 hPa WNW 6.3 km/h 9.7 km/h 93% 0 mm 0 W/m2
22:04 8.9 °C 8.3 °C 1020.5 hPa WNW 5.8 km/h 9.7 km/h 93% 0 mm 0 W/m2
22:09 9 °C 8.4 °C 1020.9 hPa WNW 4.5 km/h 8 km/h 93% 0 mm 0 W/m2
22:13 9 °C 8.4 °C 1020.9 hPa WNW 2.7 km/h 8 km/h 93% 0 mm 0 W/m2
22:19 8.9 °C 8.3 °C 1020.9 hPa WNW 0.8 km/h 3.2 km/h 93% 0 mm 0 W/m2
22:24 8.9 °C 8.3 °C 1020.5 hPa WNW 0.3 km/h 1.6 km/h 93% 0 mm 0 W/m2
22:29 8.8 °C 8.2 °C 1020.5 hPa Calm   3.2 km/h 93% 0 mm 0 W/m2
22:34 8.7 °C 8.1 °C 1020.5 hPa WNW 3.2 km/h 4.8 km/h 93% 0 mm 0 W/m2
22:39 8.6 °C 8 °C 1020.5 hPa WNW 2.7 km/h 6.4 km/h 93% 0 mm 0 W/m2
22:43 8.6 °C 7.9 °C 1020.5 hPa WNW 2.7 km/h 6.4 km/h 93% 0 mm 0 W/m2
22:48 8.5 °C 7.9 °C 1020.9 hPa WNW 3.2 km/h 4.8 km/h 93% 0 mm 0 W/m2
22:54 8.4 °C 7.8 °C 1020.9 hPa WNW 1.6 km/h 4.8 km/h 93% 0 mm 0 W/m2
22:59 8.4 °C 7.8 °C 1020.5 hPa WNW 0.8 km/h 6.4 km/h 93% 0 mm 0 W/m2
23:04 8.4 °C 7.8 °C 1020.9 hPa WNW 1.3 km/h 4.8 km/h 93% 0 mm 0 W/m2
23:09 8.4 °C 7.8 °C 1020.9 hPa WNW 1.4 km/h 4.8 km/h 93% 0 mm 0 W/m2
23:14 8.4 °C 7.8 °C 1020.9 hPa WNW 1 km/h 4.8 km/h 93% 0 mm 0 W/m2
23:19 8.4 °C 7.8 °C 1020.9 hPa WNW 2.9 km/h 4.8 km/h 93% 0 mm 0 W/m2
23:24 8.4 °C 7.8 °C 1020.9 hPa WNW 1.3 km/h 4.8 km/h 93% 0 mm 0 W/m2
23:29 8.5 °C 7.9 °C 1020.9 hPa WNW 3.2 km/h 8 km/h 93% 0 mm 0 W/m2
23:34 8.5 °C 7.9 °C 1020.9 hPa WNW 4.3 km/h 8 km/h 93% 0 mm 0 W/m2
23:39 8.6 °C 8.1 °C 1021.2 hPa WNW 6.6 km/h 11.3 km/h 93.2% 0 mm 0 W/m2
23:44 8.7 °C 8.2 °C 1021.2 hPa WNW 6.1 km/h 11.3 km/h 93.2% 0 mm 0 W/m2
23:49 8.7 °C 8.2 °C 1021.2 hPa WNW 6.4 km/h 8 km/h 93.4% 0 mm 0 W/m2
23:54 8.6 °C 8.1 °C 1021.2 hPa WNW 5.8 km/h 9.7 km/h 93.6% 0 mm 0 W/m2
23:59 8.6 °C 8.2 °C 1021.2 hPa WNW 5.3 km/h 6.4 km/h 94% 0 mm 0 W/m2
Bath Spa Weather
Compliments of Weather Underground - 2 mb